sensor_id;sensor_type;location;lat;lon;timestamp;P1;durP1;ratioP1;P2;durP2;ratioP2
28353;SDS011;15603;50.878;8.036;2023-07-13T00:01:02;5.50;;;0.90;;
28353;SDS011;15603;50.878;8.036;2023-07-13T00:03:29;2.78;;;0.88;;
28353;SDS011;15603;50.878;8.036;2023-07-13T00:06:02;6.10;;;0.98;;
28353;SDS011;15603;50.878;8.036;2023-07-13T00:08:30;2.72;;;0.80;;
28353;SDS011;15603;50.878;8.036;2023-07-13T00:11:00;7.10;;;0.70;;
28353;SDS011;15603;50.878;8.036;2023-07-13T00:13:28;4.88;;;0.98;;
28353;SDS011;15603;50.878;8.036;2023-07-13T00:15:57;6.50;;;1.58;;
28353;SDS011;15603;50.878;8.036;2023-07-13T00:18:25;8.20;;;1.00;;
28353;SDS011;15603;50.878;8.036;2023-07-13T00:20:52;4.20;;;0.85;;
28353;SDS011;15603;50.878;8.036;2023-07-13T00:23:19;6.35;;;1.10;;
28353;SDS011;15603;50.878;8.036;2023-07-13T00:25:46;3.50;;;0.77;;
28353;SDS011;15603;50.878;8.036;2023-07-13T00:28:13;1.90;;;0.57;;
28353;SDS011;15603;50.878;8.036;2023-07-13T00:30:40;7.50;;;0.85;;
28353;SDS011;15603;50.878;8.036;2023-07-13T00:33:08;4.35;;;0.65;;
28353;SDS011;15603;50.878;8.036;2023-07-13T00:35:44;6.13;;;0.90;;
28353;SDS011;15603;50.878;8.036;2023-07-13T00:38:11;6.50;;;0.60;;
28353;SDS011;15603;50.878;8.036;2023-07-13T00:40:39;4.70;;;1.00;;
28353;SDS011;15603;50.878;8.036;2023-07-13T00:43:12;9.18;;;1.10;;
28353;SDS011;15603;50.878;8.036;2023-07-13T00:48:10;7.10;;;0.90;;
28353;SDS011;15603;50.878;8.036;2023-07-13T00:50:40;10.25;;;0.80;;
28353;SDS011;15603;50.878;8.036;2023-07-13T00:53:10;5.93;;;0.90;;
28353;SDS011;15603;50.878;8.036;2023-07-13T00:55:38;10.32;;;1.13;;
28353;SDS011;15603;50.878;8.036;2023-07-13T00:58:06;6.68;;;0.70;;
28353;SDS011;15603;50.878;8.036;2023-07-13T01:00:36;4.15;;;1.08;;
28353;SDS011;15603;50.878;8.036;2023-07-13T01:03:05;3.83;;;0.90;;
28353;SDS011;15603;50.878;8.036;2023-07-13T01:05:32;5.60;;;0.93;;
28353;SDS011;15603;50.878;8.036;2023-07-13T01:08:01;3.55;;;1.00;;
28353;SDS011;15603;50.878;8.036;2023-07-13T01:10:33;5.10;;;0.93;;
28353;SDS011;15603;50.878;8.036;2023-07-13T01:13:07;2.42;;;0.80;;
28353;SDS011;15603;50.878;8.036;2023-07-13T01:15:38;6.88;;;0.77;;
28353;SDS011;15603;50.878;8.036;2023-07-13T01:18:13;9.13;;;1.05;;
28353;SDS011;15603;50.878;8.036;2023-07-13T01:20:56;5.70;;;1.27;;
28353;SDS011;15603;50.878;8.036;2023-07-13T01:23:28;7.43;;;1.00;;
28353;SDS011;15603;50.878;8.036;2023-07-13T01:25:57;3.60;;;1.20;;
28353;SDS011;15603;50.878;8.036;2023-07-13T01:28:25;4.70;;;1.02;;
28353;SDS011;15603;50.878;8.036;2023-07-13T01:30:54;7.60;;;1.27;;
28353;SDS011;15603;50.878;8.036;2023-07-13T01:33:22;7.75;;;1.10;;
28353;SDS011;15603;50.878;8.036;2023-07-13T01:35:50;3.72;;;0.93;;
28353;SDS011;15603;50.878;8.036;2023-07-13T01:38:18;8.15;;;1.27;;
28353;SDS011;15603;50.878;8.036;2023-07-13T01:40:47;8.90;;;1.20;;
28353;SDS011;15603;50.878;8.036;2023-07-13T01:43:14;4.32;;;0.80;;
28353;SDS011;15603;50.878;8.036;2023-07-13T01:45:41;12.90;;;1.13;;
28353;SDS011;15603;50.878;8.036;2023-07-13T01:48:12;3.47;;;1.00;;
28353;SDS011;15603;50.878;8.036;2023-07-13T01:50:41;7.13;;;1.40;;
28353;SDS011;15603;50.878;8.036;2023-07-13T01:53:08;6.97;;;1.02;;
28353;SDS011;15603;50.878;8.036;2023-07-13T01:55:36;5.03;;;0.82;;
28353;SDS011;15603;50.878;8.036;2023-07-13T01:58:04;9.35;;;1.05;;
28353;SDS011;15603;50.878;8.036;2023-07-13T02:00:32;8.27;;;0.90;;
28353;SDS011;15603;50.878;8.036;2023-07-13T02:03:01;5.85;;;1.02;;
28353;SDS011;15603;50.878;8.036;2023-07-13T02:05:30;3.65;;;0.90;;
28353;SDS011;15603;50.878;8.036;2023-07-13T02:07:57;10.05;;;1.75;;
28353;SDS011;15603;50.878;8.036;2023-07-13T02:10:25;4.00;;;1.00;;
28353;SDS011;15603;50.878;8.036;2023-07-13T02:12:52;4.55;;;1.27;;
28353;SDS011;15603;50.878;8.036;2023-07-13T02:15:20;6.35;;;1.45;;
28353;SDS011;15603;50.878;8.036;2023-07-13T02:17:47;7.55;;;1.50;;
28353;SDS011;15603;50.878;8.036;2023-07-13T02:20:14;6.28;;;1.27;;
28353;SDS011;15603;50.878;8.036;2023-07-13T02:22:42;6.95;;;1.50;;
28353;SDS011;15603;50.878;8.036;2023-07-13T02:25:09;3.78;;;1.45;;
28353;SDS011;15603;50.878;8.036;2023-07-13T02:27:36;6.28;;;1.77;;
28353;SDS011;15603;50.878;8.036;2023-07-13T02:30:03;6.28;;;2.00;;
28353;SDS011;15603;50.878;8.036;2023-07-13T02:32:31;7.38;;;1.95;;
28353;SDS011;15603;50.878;8.036;2023-07-13T02:34:58;6.72;;;2.00;;
28353;SDS011;15603;50.878;8.036;2023-07-13T02:37:25;8.10;;;1.23;;
28353;SDS011;15603;50.878;8.036;2023-07-13T02:39:52;7.22;;;1.33;;
28353;SDS011;15603;50.878;8.036;2023-07-13T02:42:19;3.83;;;1.15;;
28353;SDS011;15603;50.878;8.036;2023-07-13T02:44:46;5.95;;;1.30;;
28353;SDS011;15603;50.878;8.036;2023-07-13T02:47:13;5.82;;;1.30;;
28353;SDS011;15603;50.878;8.036;2023-07-13T02:49:40;7.45;;;1.70;;
28353;SDS011;15603;50.878;8.036;2023-07-13T02:52:08;4.90;;;1.58;;
28353;SDS011;15603;50.878;8.036;2023-07-13T02:54:35;8.65;;;1.58;;
28353;SDS011;15603;50.878;8.036;2023-07-13T02:57:02;6.30;;;1.63;;
28353;SDS011;15603;50.878;8.036;2023-07-13T02:59:29;9.20;;;1.73;;
28353;SDS011;15603;50.878;8.036;2023-07-13T03:01:57;7.90;;;2.13;;
28353;SDS011;15603;50.878;8.036;2023-07-13T03:04:24;10.57;;;1.65;;
28353;SDS011;15603;50.878;8.036;2023-07-13T03:06:52;5.22;;;1.80;;
28353;SDS011;15603;50.878;8.036;2023-07-13T03:09:19;4.90;;;1.40;;
28353;SDS011;15603;50.878;8.036;2023-07-13T03:11:54;5.18;;;1.35;;
28353;SDS011;15603;50.878;8.036;2023-07-13T03:14:27;11.57;;;2.17;;
28353;SDS011;15603;50.878;8.036;2023-07-13T03:16:54;9.18;;;2.13;;
28353;SDS011;15603;50.878;8.036;2023-07-13T03:19:25;7.82;;;2.45;;
28353;SDS011;15603;50.878;8.036;2023-07-13T03:21:53;5.28;;;1.58;;
28353;SDS011;15603;50.878;8.036;2023-07-13T03:24:21;3.45;;;1.38;;
28353;SDS011;15603;50.878;8.036;2023-07-13T03:26:51;11.30;;;1.70;;
28353;SDS011;15603;50.878;8.036;2023-07-13T03:29:19;5.18;;;1.75;;
28353;SDS011;15603;50.878;8.036;2023-07-13T03:31:46;8.85;;;1.98;;
28353;SDS011;15603;50.878;8.036;2023-07-13T03:34:13;11.10;;;2.78;;
28353;SDS011;15603;50.878;8.036;2023-07-13T03:36:43;7.97;;;2.80;;
28353;SDS011;15603;50.878;8.036;2023-07-13T03:39:12;8.85;;;2.10;;
28353;SDS011;15603;50.878;8.036;2023-07-13T03:41:48;8.13;;;1.52;;
28353;SDS011;15603;50.878;8.036;2023-07-13T03:44:16;7.20;;;1.60;;
28353;SDS011;15603;50.878;8.036;2023-07-13T03:46:48;10.82;;;1.63;;
28353;SDS011;15603;50.878;8.036;2023-07-13T03:49:15;12.10;;;2.85;;
28353;SDS011;15603;50.878;8.036;2023-07-13T03:51:42;8.15;;;2.17;;
28353;SDS011;15603;50.878;8.036;2023-07-13T03:54:10;15.65;;;2.65;;
28353;SDS011;15603;50.878;8.036;2023-07-13T03:56:37;8.93;;;1.92;;
28353;SDS011;15603;50.878;8.036;2023-07-13T03:59:06;8.20;;;2.50;;
28353;SDS011;15603;50.878;8.036;2023-07-13T04:01:33;9.20;;;1.80;;
28353;SDS011;15603;50.878;8.036;2023-07-13T04:04:01;16.33;;;1.90;;
28353;SDS011;15603;50.878;8.036;2023-07-13T04:06:30;8.20;;;1.58;;
28353;SDS011;15603;50.878;8.036;2023-07-13T04:08:59;3.05;;;1.10;;
28353;SDS011;15603;50.878;8.036;2023-07-13T04:11:28;7.28;;;1.80;;
28353;SDS011;15603;50.878;8.036;2023-07-13T04:13:59;16.93;;;3.50;;
28353;SDS011;15603;50.878;8.036;2023-07-13T04:16:26;13.32;;;3.42;;
28353;SDS011;15603;50.878;8.036;2023-07-13T04:18:54;15.00;;;2.80;;
28353;SDS011;15603;50.878;8.036;2023-07-13T04:21:26;11.57;;;2.08;;
28353;SDS011;15603;50.878;8.036;2023-07-13T04:23:54;16.38;;;3.83;;
28353;SDS011;15603;50.878;8.036;2023-07-13T04:26:22;8.52;;;2.63;;
28353;SDS011;15603;50.878;8.036;2023-07-13T04:28:50;9.32;;;3.47;;
28353;SDS011;15603;50.878;8.036;2023-07-13T04:31:18;8.35;;;2.70;;
28353;SDS011;15603;50.878;8.036;2023-07-13T04:33:45;7.25;;;2.45;;
28353;SDS011;15603;50.878;8.036;2023-07-13T04:36:15;7.68;;;2.58;;
28353;SDS011;15603;50.878;8.036;2023-07-13T04:38:43;8.77;;;2.00;;
28353;SDS011;15603;50.878;8.036;2023-07-13T04:41:10;6.68;;;2.60;;
28353;SDS011;15603;50.878;8.036;2023-07-13T04:43:41;11.25;;;3.25;;
28353;SDS011;15603;50.878;8.036;2023-07-13T04:46:09;11.02;;;3.25;;
28353;SDS011;15603;50.878;8.036;2023-07-13T04:48:39;10.38;;;3.53;;
28353;SDS011;15603;50.878;8.036;2023-07-13T04:51:06;12.25;;;3.78;;
28353;SDS011;15603;50.878;8.036;2023-07-13T04:53:34;17.77;;;3.92;;
28353;SDS011;15603;50.878;8.036;2023-07-13T04:56:02;10.20;;;3.80;;
28353;SDS011;15603;50.878;8.036;2023-07-13T04:58:30;15.60;;;4.07;;
28353;SDS011;15603;50.878;8.036;2023-07-13T05:01:01;11.70;;;4.28;;
28353;SDS011;15603;50.878;8.036;2023-07-13T05:03:29;14.43;;;3.65;;
28353;SDS011;15603;50.878;8.036;2023-07-13T05:05:57;12.38;;;4.00;;
28353;SDS011;15603;50.878;8.036;2023-07-13T05:08:26;20.73;;;4.43;;
28353;SDS011;15603;50.878;8.036;2023-07-13T05:10:53;11.07;;;3.47;;
28353;SDS011;15603;50.878;8.036;2023-07-13T05:13:21;10.23;;;3.67;;
28353;SDS011;15603;50.878;8.036;2023-07-13T05:15:56;12.35;;;3.40;;
28353;SDS011;15603;50.878;8.036;2023-07-13T05:18:25;13.02;;;4.68;;
28353;SDS011;15603;50.878;8.036;2023-07-13T05:20:57;12.52;;;4.13;;
28353;SDS011;15603;50.878;8.036;2023-07-13T05:23:31;14.15;;;3.05;;
28353;SDS011;15603;50.878;8.036;2023-07-13T05:26:00;11.95;;;4.22;;
28353;SDS011;15603;50.878;8.036;2023-07-13T05:28:28;21.25;;;5.05;;
28353;SDS011;15603;50.878;8.036;2023-07-13T05:30:57;22.55;;;5.30;;
28353;SDS011;15603;50.878;8.036;2023-07-13T05:33:25;15.05;;;3.53;;
28353;SDS011;15603;50.878;8.036;2023-07-13T05:35:52;19.45;;;4.97;;
28353;SDS011;15603;50.878;8.036;2023-07-13T05:38:20;18.50;;;4.70;;
28353;SDS011;15603;50.878;8.036;2023-07-13T05:40:47;16.33;;;3.47;;
28353;SDS011;15603;50.878;8.036;2023-07-13T05:43:15;15.20;;;3.25;;
28353;SDS011;15603;50.878;8.036;2023-07-13T05:45:42;13.80;;;3.63;;
28353;SDS011;15603;50.878;8.036;2023-07-13T05:48:09;10.35;;;2.83;;
28353;SDS011;15603;50.878;8.036;2023-07-13T05:50:36;10.63;;;3.05;;
28353;SDS011;15603;50.878;8.036;2023-07-13T05:53:03;9.18;;;3.28;;
28353;SDS011;15603;50.878;8.036;2023-07-13T05:55:31;11.23;;;2.90;;
28353;SDS011;15603;50.878;8.036;2023-07-13T05:57:59;11.63;;;3.45;;
28353;SDS011;15603;50.878;8.036;2023-07-13T06:00:27;6.50;;;1.92;;
28353;SDS011;15603;50.878;8.036;2023-07-13T06:02:55;5.65;;;1.00;;
28353;SDS011;15603;50.878;8.036;2023-07-13T06:05:23;5.15;;;1.25;;
28353;SDS011;15603;50.878;8.036;2023-07-13T06:07:50;6.45;;;0.82;;
28353;SDS011;15603;50.878;8.036;2023-07-13T06:10:17;4.32;;;1.10;;
28353;SDS011;15603;50.878;8.036;2023-07-13T06:12:45;5.80;;;1.27;;
28353;SDS011;15603;50.878;8.036;2023-07-13T06:15:12;4.03;;;0.85;;
28353;SDS011;15603;50.878;8.036;2023-07-13T06:17:39;9.70;;;1.35;;
28353;SDS011;15603;50.878;8.036;2023-07-13T06:20:06;5.03;;;2.22;;
28353;SDS011;15603;50.878;8.036;2023-07-13T06:22:34;6.45;;;1.33;;
28353;SDS011;15603;50.878;8.036;2023-07-13T06:25:01;9.32;;;1.33;;
28353;SDS011;15603;50.878;8.036;2023-07-13T06:27:28;5.03;;;1.25;;
28353;SDS011;15603;50.878;8.036;2023-07-13T06:29:57;8.43;;;0.90;;
28353;SDS011;15603;50.878;8.036;2023-07-13T06:32:24;11.63;;;1.30;;
28353;SDS011;15603;50.878;8.036;2023-07-13T06:34:51;7.05;;;1.00;;
28353;SDS011;15603;50.878;8.036;2023-07-13T06:37:21;6.38;;;0.80;;
28353;SDS011;15603;50.878;8.036;2023-07-13T06:39:48;8.95;;;1.08;;
28353;SDS011;15603;50.878;8.036;2023-07-13T06:42:16;5.00;;;0.75;;
28353;SDS011;15603;50.878;8.036;2023-07-13T06:44:43;14.88;;;0.93;;
28353;SDS011;15603;50.878;8.036;2023-07-13T06:47:11;6.35;;;1.17;;
28353;SDS011;15603;50.878;8.036;2023-07-13T06:49:38;6.13;;;0.82;;
28353;SDS011;15603;50.878;8.036;2023-07-13T06:52:05;4.15;;;0.70;;
28353;SDS011;15603;50.878;8.036;2023-07-13T06:54:32;6.03;;;0.90;;
28353;SDS011;15603;50.878;8.036;2023-07-13T06:56:59;3.83;;;0.95;;
28353;SDS011;15603;50.878;8.036;2023-07-13T06:59:26;9.38;;;1.13;;
28353;SDS011;15603;50.878;8.036;2023-07-13T07:01:53;10.05;;;1.00;;
28353;SDS011;15603;50.878;8.036;2023-07-13T07:04:20;11.43;;;1.02;;
28353;SDS011;15603;50.878;8.036;2023-07-13T07:06:48;5.05;;;0.68;;
28353;SDS011;15603;50.878;8.036;2023-07-13T07:09:15;2.13;;;0.65;;
28353;SDS011;15603;50.878;8.036;2023-07-13T07:11:43;4.47;;;0.93;;
28353;SDS011;15603;50.878;8.036;2023-07-13T07:14:28;5.13;;;1.05;;
28353;SDS011;15603;50.878;8.036;2023-07-13T07:16:55;5.20;;;1.25;;
28353;SDS011;15603;50.878;8.036;2023-07-13T07:19:22;5.18;;;0.90;;
28353;SDS011;15603;50.878;8.036;2023-07-13T07:21:49;3.03;;;0.68;;
28353;SDS011;15603;50.878;8.036;2023-07-13T07:24:16;5.35;;;0.90;;
28353;SDS011;15603;50.878;8.036;2023-07-13T07:26:44;6.20;;;0.65;;
28353;SDS011;15603;50.878;8.036;2023-07-13T07:29:14;6.05;;;1.00;;
28353;SDS011;15603;50.878;8.036;2023-07-13T07:31:43;4.25;;;0.73;;
28353;SDS011;15603;50.878;8.036;2023-07-13T07:34:14;4.55;;;1.40;;
28353;SDS011;15603;50.878;8.036;2023-07-13T07:36:41;2.97;;;0.65;;
28353;SDS011;15603;50.878;8.036;2023-07-13T07:39:11;5.20;;;1.38;;
28353;SDS011;15603;50.878;8.036;2023-07-13T07:41:38;7.40;;;0.80;;
28353;SDS011;15603;50.878;8.036;2023-07-13T07:44:08;5.47;;;0.60;;
28353;SDS011;15603;50.878;8.036;2023-07-13T07:46:36;6.45;;;1.23;;
28353;SDS011;15603;50.878;8.036;2023-07-13T07:49:04;10.07;;;0.90;;
28353;SDS011;15603;50.878;8.036;2023-07-13T07:51:31;4.72;;;0.88;;
28353;SDS011;15603;50.878;8.036;2023-07-13T07:53:58;6.03;;;0.80;;
28353;SDS011;15603;50.878;8.036;2023-07-13T07:56:25;6.03;;;1.20;;
28353;SDS011;15603;50.878;8.036;2023-07-13T07:58:55;2.80;;;0.70;;
28353;SDS011;15603;50.878;8.036;2023-07-13T08:01:25;3.38;;;0.90;;
28353;SDS011;15603;50.878;8.036;2023-07-13T08:03:55;5.75;;;0.63;;
28353;SDS011;15603;50.878;8.036;2023-07-13T08:06:25;6.88;;;0.73;;
28353;SDS011;15603;50.878;8.036;2023-07-13T08:08:55;2.40;;;0.50;;
28353;SDS011;15603;50.878;8.036;2023-07-13T08:11:23;4.65;;;0.77;;
28353;SDS011;15603;50.878;8.036;2023-07-13T08:13:53;3.90;;;0.90;;
28353;SDS011;15603;50.878;8.036;2023-07-13T08:16:22;5.20;;;1.08;;
28353;SDS011;15603;50.878;8.036;2023-07-13T08:18:50;4.05;;;0.75;;
28353;SDS011;15603;50.878;8.036;2023-07-13T08:21:17;3.15;;;0.73;;
28353;SDS011;15603;50.878;8.036;2023-07-13T08:23:46;5.53;;;0.85;;
28353;SDS011;15603;50.878;8.036;2023-07-13T08:26:14;4.88;;;0.57;;
28353;SDS011;15603;50.878;8.036;2023-07-13T08:28:41;3.13;;;0.70;;
28353;SDS011;15603;50.878;8.036;2023-07-13T08:31:08;4.13;;;0.40;;
28353;SDS011;15603;50.878;8.036;2023-07-13T08:33:37;6.00;;;0.57;;
28353;SDS011;15603;50.878;8.036;2023-07-13T08:36:05;3.65;;;0.50;;
28353;SDS011;15603;50.878;8.036;2023-07-13T08:38:32;3.05;;;0.95;;
28353;SDS011;15603;50.878;8.036;2023-07-13T08:41:00;3.88;;;0.60;;
28353;SDS011;15603;50.878;8.036;2023-07-13T08:43:37;6.10;;;0.60;;
28353;SDS011;15603;50.878;8.036;2023-07-13T08:49:03;4.68;;;0.82;;
28353;SDS011;15603;50.878;8.036;2023-07-13T08:54:20;4.00;;;0.70;;
28353;SDS011;15603;50.878;8.036;2023-07-13T08:56:54;2.65;;;0.60;;
28353;SDS011;15603;50.878;8.036;2023-07-13T08:59:24;3.90;;;0.98;;
28353;SDS011;15603;50.878;8.036;2023-07-13T09:02:00;2.78;;;0.70;;
28353;SDS011;15603;50.878;8.036;2023-07-13T09:04:50;3.50;;;0.60;;
28353;SDS011;15603;50.878;8.036;2023-07-13T09:10:15;4.23;;;0.83;;
28353;SDS011;15603;50.878;8.036;2023-07-13T09:18:04;5.47;;;0.60;;
28353;SDS011;15603;50.878;8.036;2023-07-13T09:20:42;2.25;;;0.63;;
28353;SDS011;15603;50.878;8.036;2023-07-13T09:23:16;7.25;;;0.70;;
28353;SDS011;15603;50.878;8.036;2023-07-13T09:25:48;9.10;;;0.90;;
28353;SDS011;15603;50.878;8.036;2023-07-13T09:31:04;3.03;;;0.70;;
28353;SDS011;15603;50.878;8.036;2023-07-13T09:33:37;4.22;;;0.70;;
28353;SDS011;15603;50.878;8.036;2023-07-13T09:36:16;1.92;;;0.55;;
28353;SDS011;15603;50.878;8.036;2023-07-13T09:38:46;6.17;;;1.33;;
28353;SDS011;15603;50.878;8.036;2023-07-13T09:41:20;3.20;;;0.63;;
28353;SDS011;15603;50.878;8.036;2023-07-13T09:44:11;3.95;;;0.77;;
28353;SDS011;15603;50.878;8.036;2023-07-13T09:46:44;4.50;;;0.60;;
28353;SDS011;15603;50.878;8.036;2023-07-13T09:49:14;11.30;;;0.95;;
28353;SDS011;15603;50.878;8.036;2023-07-13T09:51:41;5.78;;;0.90;;
28353;SDS011;15603;50.878;8.036;2023-07-13T09:54:19;4.80;;;0.52;;
28353;SDS011;15603;50.878;8.036;2023-07-13T09:56:47;13.27;;;2.20;;
28353;SDS011;15603;50.878;8.036;2023-07-13T09:59:20;3.85;;;0.80;;
28353;SDS011;15603;50.878;8.036;2023-07-13T10:01:50;2.97;;;0.73;;
28353;SDS011;15603;50.878;8.036;2023-07-13T10:04:18;5.68;;;0.90;;
28353;SDS011;15603;50.878;8.036;2023-07-13T10:06:47;2.35;;;0.70;;
28353;SDS011;15603;50.878;8.036;2023-07-13T10:09:18;3.70;;;0.70;;
28353;SDS011;15603;50.878;8.036;2023-07-13T10:11:45;4.05;;;1.15;;
28353;SDS011;15603;50.878;8.036;2023-07-13T10:16:40;4.60;;;0.80;;
28353;SDS011;15603;50.878;8.036;2023-07-13T10:19:15;9.77;;;0.93;;
28353;SDS011;15603;50.878;8.036;2023-07-13T10:21:57;5.82;;;1.33;;
28353;SDS011;15603;50.878;8.036;2023-07-13T10:24:27;3.42;;;0.80;;
28353;SDS011;15603;50.878;8.036;2023-07-13T10:29:51;3.28;;;0.82;;
28353;SDS011;15603;50.878;8.036;2023-07-13T10:32:22;2.35;;;0.50;;
28353;SDS011;15603;50.878;8.036;2023-07-13T10:34:51;3.47;;;0.50;;
28353;SDS011;15603;50.878;8.036;2023-07-13T10:37:20;2.72;;;0.60;;
28353;SDS011;15603;50.878;8.036;2023-07-13T10:39:49;2.45;;;0.85;;
28353;SDS011;15603;50.878;8.036;2023-07-13T10:42:24;2.20;;;0.70;;
28353;SDS011;15603;50.878;8.036;2023-07-13T10:44:58;5.22;;;0.80;;
28353;SDS011;15603;50.878;8.036;2023-07-13T10:47:26;10.15;;;1.25;;
28353;SDS011;15603;50.878;8.036;2023-07-13T10:49:56;5.00;;;0.80;;
28353;SDS011;15603;50.878;8.036;2023-07-13T10:58:12;4.35;;;0.80;;
28353;SDS011;15603;50.878;8.036;2023-07-13T11:00:49;5.63;;;0.88;;
28353;SDS011;15603;50.878;8.036;2023-07-13T11:03:38;10.18;;;0.90;;
28353;SDS011;15603;50.878;8.036;2023-07-13T11:08:56;7.70;;;0.52;;
28353;SDS011;15603;50.878;8.036;2023-07-13T11:18:48;1.90;;;0.63;;
28353;SDS011;15603;50.878;8.036;2023-07-13T11:22:01;2.83;;;0.45;;
28353;SDS011;15603;50.878;8.036;2023-07-13T11:24:29;5.65;;;0.82;;
28353;SDS011;15603;50.878;8.036;2023-07-13T11:30:23;0.77;;;0.50;;
28353;SDS011;15603;50.878;8.036;2023-07-13T11:32:52;3.67;;;0.95;;
28353;SDS011;15603;50.878;8.036;2023-07-13T11:35:29;1.77;;;0.57;;
28353;SDS011;15603;50.878;8.036;2023-07-13T11:37:57;1.88;;;0.70;;
28353;SDS011;15603;50.878;8.036;2023-07-13T11:40:25;1.95;;;0.50;;
28353;SDS011;15603;50.878;8.036;2023-07-13T11:43:00;3.95;;;0.90;;
28353;SDS011;15603;50.878;8.036;2023-07-13T11:45:28;3.92;;;0.40;;
28353;SDS011;15603;50.878;8.036;2023-07-13T11:48:19;5.78;;;0.68;;
28353;SDS011;15603;50.878;8.036;2023-07-13T11:50:51;4.07;;;0.65;;
28353;SDS011;15603;50.878;8.036;2023-07-13T11:53:23;1.50;;;0.52;;
28353;SDS011;15603;50.878;8.036;2023-07-13T11:55:54;5.45;;;0.60;;
28353;SDS011;15603;50.878;8.036;2023-07-13T11:58:23;2.40;;;0.70;;
28353;SDS011;15603;50.878;8.036;2023-07-13T12:00:51;3.78;;;0.95;;
28353;SDS011;15603;50.878;8.036;2023-07-13T12:03:21;5.50;;;0.60;;
28353;SDS011;15603;50.878;8.036;2023-07-13T12:06:02;8.93;;;0.93;;
28353;SDS011;15603;50.878;8.036;2023-07-13T12:08:37;2.92;;;0.90;;
28353;SDS011;15603;50.878;8.036;2023-07-13T12:11:13;2.65;;;0.70;;
28353;SDS011;15603;50.878;8.036;2023-07-13T12:13:44;2.67;;;0.77;;
28353;SDS011;15603;50.878;8.036;2023-07-13T12:16:17;6.07;;;0.70;;
28353;SDS011;15603;50.878;8.036;2023-07-13T12:18:52;3.67;;;0.68;;
28353;SDS011;15603;50.878;8.036;2023-07-13T12:21:22;2.75;;;0.80;;
28353;SDS011;15603;50.878;8.036;2023-07-13T12:23:55;2.13;;;0.70;;
28353;SDS011;15603;50.878;8.036;2023-07-13T12:26:23;2.22;;;0.55;;
28353;SDS011;15603;50.878;8.036;2023-07-13T12:28:53;2.35;;;0.93;;
28353;SDS011;15603;50.878;8.036;2023-07-13T12:31:25;3.75;;;1.10;;
28353;SDS011;15603;50.878;8.036;2023-07-13T12:33:58;3.88;;;0.60;;
28353;SDS011;15603;50.878;8.036;2023-07-13T12:36:26;5.25;;;0.95;;
28353;SDS011;15603;50.878;8.036;2023-07-13T12:38:59;3.90;;;0.83;;
28353;SDS011;15603;50.878;8.036;2023-07-13T12:41:31;6.53;;;1.00;;
28353;SDS011;15603;50.878;8.036;2023-07-13T12:43:59;1.88;;;0.55;;
28353;SDS011;15603;50.878;8.036;2023-07-13T12:46:27;4.88;;;0.93;;
28353;SDS011;15603;50.878;8.036;2023-07-13T12:48:57;3.25;;;0.70;;
28353;SDS011;15603;50.878;8.036;2023-07-13T12:51:43;4.38;;;1.55;;
28353;SDS011;15603;50.878;8.036;2023-07-13T12:54:19;10.85;;;0.90;;
28353;SDS011;15603;50.878;8.036;2023-07-13T12:56:49;6.30;;;1.00;;
28353;SDS011;15603;50.878;8.036;2023-07-13T12:59:20;5.60;;;1.25;;
28353;SDS011;15603;50.878;8.036;2023-07-13T13:01:48;7.40;;;1.38;;
28353;SDS011;15603;50.878;8.036;2023-07-13T13:04:17;2.53;;;0.52;;
28353;SDS011;15603;50.878;8.036;2023-07-13T13:06:49;4.73;;;0.73;;
28353;SDS011;15603;50.878;8.036;2023-07-13T13:09:27;2.20;;;0.63;;
28353;SDS011;15603;50.878;8.036;2023-07-13T13:11:54;4.32;;;0.82;;
28353;SDS011;15603;50.878;8.036;2023-07-13T13:14:21;7.78;;;0.60;;
28353;SDS011;15603;50.878;8.036;2023-07-13T13:16:51;5.50;;;1.27;;
28353;SDS011;15603;50.878;8.036;2023-07-13T13:19:22;5.63;;;0.55;;
28353;SDS011;15603;50.878;8.036;2023-07-13T13:21:52;5.38;;;0.70;;
28353;SDS011;15603;50.878;8.036;2023-07-13T13:24:23;4.85;;;0.80;;
28353;SDS011;15603;50.878;8.036;2023-07-13T13:26:53;2.03;;;0.75;;
28353;SDS011;15603;50.878;8.036;2023-07-13T13:29:21;1.85;;;0.43;;
28353;SDS011;15603;50.878;8.036;2023-07-13T13:31:53;4.43;;;0.68;;
28353;SDS011;15603;50.878;8.036;2023-07-13T13:34:22;4.32;;;1.00;;
28353;SDS011;15603;50.878;8.036;2023-07-13T13:36:50;6.47;;;0.75;;
28353;SDS011;15603;50.878;8.036;2023-07-13T13:39:23;5.15;;;1.48;;
28353;SDS011;15603;50.878;8.036;2023-07-13T13:42:01;1.85;;;0.88;;
28353;SDS011;15603;50.878;8.036;2023-07-13T13:44:28;2.67;;;0.70;;
28353;SDS011;15603;50.878;8.036;2023-07-13T13:46:56;10.32;;;1.58;;
28353;SDS011;15603;50.878;8.036;2023-07-13T13:49:25;4.20;;;0.80;;
28353;SDS011;15603;50.878;8.036;2023-07-13T13:51:53;2.28;;;0.70;;
28353;SDS011;15603;50.878;8.036;2023-07-13T13:54:21;4.15;;;0.90;;
28353;SDS011;15603;50.878;8.036;2023-07-13T13:56:50;5.35;;;1.23;;
28353;SDS011;15603;50.878;8.036;2023-07-13T13:59:19;4.93;;;0.98;;
28353;SDS011;15603;50.878;8.036;2023-07-13T14:01:47;3.97;;;1.02;;
28353;SDS011;15603;50.878;8.036;2023-07-13T14:04:17;6.80;;;1.55;;
28353;SDS011;15603;50.878;8.036;2023-07-13T14:06:46;4.82;;;0.98;;
28353;SDS011;15603;50.878;8.036;2023-07-13T14:09:15;1.80;;;0.90;;
28353;SDS011;15603;50.878;8.036;2023-07-13T14:11:45;5.90;;;1.20;;
28353;SDS011;15603;50.878;8.036;2023-07-13T14:14:17;2.72;;;0.57;;
28353;SDS011;15603;50.878;8.036;2023-07-13T14:16:47;3.78;;;0.80;;
28353;SDS011;15603;50.878;8.036;2023-07-13T14:19:20;2.95;;;0.80;;
28353;SDS011;15603;50.878;8.036;2023-07-13T14:21:47;3.40;;;0.70;;
28353;SDS011;15603;50.878;8.036;2023-07-13T14:24:16;3.90;;;1.00;;
28353;SDS011;15603;50.878;8.036;2023-07-13T14:26:46;2.38;;;0.70;;
28353;SDS011;15603;50.878;8.036;2023-07-13T14:29:14;2.28;;;0.95;;
28353;SDS011;15603;50.878;8.036;2023-07-13T14:31:47;4.20;;;1.00;;
28353;SDS011;15603;50.878;8.036;2023-07-13T14:34:14;2.75;;;0.60;;
28353;SDS011;15603;50.878;8.036;2023-07-13T14:36:42;2.85;;;0.90;;
28353;SDS011;15603;50.878;8.036;2023-07-13T14:39:20;4.82;;;0.80;;
28353;SDS011;15603;50.878;8.036;2023-07-13T14:41:53;4.10;;;1.10;;
28353;SDS011;15603;50.878;8.036;2023-07-13T14:44:24;2.15;;;0.47;;
28353;SDS011;15603;50.878;8.036;2023-07-13T14:46:52;11.45;;;1.30;;
28353;SDS011;15603;50.878;8.036;2023-07-13T14:52:00;3.00;;;0.90;;
28353;SDS011;15603;50.878;8.036;2023-07-13T14:54:32;4.10;;;0.85;;
28353;SDS011;15603;50.878;8.036;2023-07-13T14:56:59;3.85;;;0.77;;
28353;SDS011;15603;50.878;8.036;2023-07-13T14:59:28;4.88;;;1.13;;
28353;SDS011;15603;50.878;8.036;2023-07-13T15:01:55;2.63;;;0.82;;
28353;SDS011;15603;50.878;8.036;2023-07-13T15:04:22;4.25;;;0.60;;
28353;SDS011;15603;50.878;8.036;2023-07-13T15:06:59;2.45;;;0.52;;
28353;SDS011;15603;50.878;8.036;2023-07-13T15:09:29;4.63;;;0.93;;
28353;SDS011;15603;50.878;8.036;2023-07-13T15:11:56;2.50;;;0.60;;
28353;SDS011;15603;50.878;8.036;2023-07-13T15:14:25;2.70;;;0.98;;
28353;SDS011;15603;50.878;8.036;2023-07-13T15:16:54;2.42;;;0.60;;
28353;SDS011;15603;50.878;8.036;2023-07-13T15:19:23;4.40;;;1.17;;
28353;SDS011;15603;50.878;8.036;2023-07-13T15:21:52;1.95;;;0.63;;
28353;SDS011;15603;50.878;8.036;2023-07-13T15:24:24;2.65;;;0.55;;
28353;SDS011;15603;50.878;8.036;2023-07-13T15:26:51;10.77;;;0.95;;
28353;SDS011;15603;50.878;8.036;2023-07-13T15:29:19;4.53;;;1.15;;
28353;SDS011;15603;50.878;8.036;2023-07-13T15:31:46;2.00;;;0.52;;
28353;SDS011;15603;50.878;8.036;2023-07-13T15:34:14;4.68;;;1.13;;
28353;SDS011;15603;50.878;8.036;2023-07-13T15:36:43;2.15;;;0.60;;
28353;SDS011;15603;50.878;8.036;2023-07-13T15:39:14;3.70;;;0.80;;
28353;SDS011;15603;50.878;8.036;2023-07-13T15:41:45;5.03;;;1.10;;
28353;SDS011;15603;50.878;8.036;2023-07-13T15:44:31;2.80;;;0.50;;
28353;SDS011;15603;50.878;8.036;2023-07-13T15:46:59;5.97;;;0.70;;